sensor_id;sensor_type;location;lat;lon;timestamp;P1;durP1;ratioP1;P2;durP2;ratioP2
33268;SDS011;19640;50.944;5.260;2023-02-28T00:00:49;6.22;;;5.63;;
33268;SDS011;19640;50.944;5.260;2023-02-28T00:03:15;7.85;;;5.25;;
33268;SDS011;19640;50.944;5.260;2023-02-28T00:05:41;5.53;;;4.88;;
33268;SDS011;19640;50.944;5.260;2023-02-28T00:08:07;6.95;;;5.55;;
33268;SDS011;19640;50.944;5.260;2023-02-28T00:10:33;6.38;;;4.70;;
33268;SDS011;19640;50.944;5.260;2023-02-28T00:13:00;6.30;;;5.07;;
33268;SDS011;19640;50.944;5.260;2023-02-28T00:15:28;11.75;;;5.20;;
33268;SDS011;19640;50.944;5.260;2023-02-28T00:17:54;6.60;;;4.70;;
33268;SDS011;19640;50.944;5.260;2023-02-28T00:20:19;7.18;;;5.32;;
33268;SDS011;19640;50.944;5.260;2023-02-28T00:22:46;8.55;;;5.00;;
33268;SDS011;19640;50.944;5.260;2023-02-28T00:25:15;8.27;;;4.75;;
33268;SDS011;19640;50.944;5.260;2023-02-28T00:27:43;5.60;;;5.10;;
33268;SDS011;19640;50.944;5.260;2023-02-28T00:30:10;5.75;;;4.82;;
33268;SDS011;19640;50.944;5.260;2023-02-28T00:32:39;7.47;;;4.88;;
33268;SDS011;19640;50.944;5.260;2023-02-28T00:35:05;9.77;;;5.63;;
33268;SDS011;19640;50.944;5.260;2023-02-28T00:37:32;6.82;;;4.85;;
33268;SDS011;19640;50.944;5.260;2023-02-28T00:39:58;11.55;;;5.40;;
33268;SDS011;19640;50.944;5.260;2023-02-28T00:42:23;5.75;;;5.10;;
33268;SDS011;19640;50.944;5.260;2023-02-28T00:44:49;9.57;;;4.75;;
33268;SDS011;19640;50.944;5.260;2023-02-28T00:47:15;9.75;;;5.28;;
33268;SDS011;19640;50.944;5.260;2023-02-28T00:49:41;6.50;;;5.10;;
33268;SDS011;19640;50.944;5.260;2023-02-28T00:52:07;8.77;;;5.50;;
33268;SDS011;19640;50.944;5.260;2023-02-28T00:54:32;5.93;;;5.05;;
33268;SDS011;19640;50.944;5.260;2023-02-28T00:56:58;8.55;;;6.03;;
33268;SDS011;19640;50.944;5.260;2023-02-28T00:59:24;8.15;;;5.22;;
33268;SDS011;19640;50.944;5.260;2023-02-28T01:01:50;10.27;;;5.20;;
33268;SDS011;19640;50.944;5.260;2023-02-28T01:04:15;6.95;;;4.78;;
33268;SDS011;19640;50.944;5.260;2023-02-28T01:06:41;7.55;;;5.07;;
33268;SDS011;19640;50.944;5.260;2023-02-28T01:09:07;5.80;;;5.13;;
33268;SDS011;19640;50.944;5.260;2023-02-28T01:11:34;7.40;;;5.10;;
33268;SDS011;19640;50.944;5.260;2023-02-28T01:14:00;9.07;;;5.70;;
33268;SDS011;19640;50.944;5.260;2023-02-28T01:16:27;6.65;;;5.07;;
33268;SDS011;19640;50.944;5.260;2023-02-28T01:18:53;9.93;;;5.45;;
33268;SDS011;19640;50.944;5.260;2023-02-28T01:21:19;6.90;;;5.35;;
33268;SDS011;19640;50.944;5.260;2023-02-28T01:23:46;6.93;;;5.80;;
33268;SDS011;19640;50.944;5.260;2023-02-28T01:28:45;7.80;;;6.45;;
33268;SDS011;19640;50.944;5.260;2023-02-28T01:31:11;9.38;;;6.43;;
33268;SDS011;19640;50.944;5.260;2023-02-28T01:33:37;9.35;;;5.72;;
33268;SDS011;19640;50.944;5.260;2023-02-28T01:36:04;8.30;;;5.45;;
33268;SDS011;19640;50.944;5.260;2023-02-28T01:38:32;5.90;;;5.07;;
33268;SDS011;19640;50.944;5.260;2023-02-28T01:40:58;8.02;;;5.35;;
33268;SDS011;19640;50.944;5.260;2023-02-28T01:43:27;6.32;;;5.53;;
33268;SDS011;19640;50.944;5.260;2023-02-28T01:48:23;6.95;;;5.18;;
33268;SDS011;19640;50.944;5.260;2023-02-28T01:50:52;8.02;;;5.75;;
33268;SDS011;19640;50.944;5.260;2023-02-28T01:53:23;8.07;;;6.28;;
33268;SDS011;19640;50.944;5.260;2023-02-28T01:55:54;7.43;;;6.13;;
33268;SDS011;19640;50.944;5.260;2023-02-28T01:58:20;9.90;;;7.97;;
33268;SDS011;19640;50.944;5.260;2023-02-28T02:00:46;11.10;;;7.63;;
33268;SDS011;19640;50.944;5.260;2023-02-28T02:03:13;9.30;;;7.35;;
33268;SDS011;19640;50.944;5.260;2023-02-28T02:05:43;8.73;;;6.28;;
33268;SDS011;19640;50.944;5.260;2023-02-28T02:08:22;11.77;;;6.95;;
33268;SDS011;19640;50.944;5.260;2023-02-28T02:10:53;9.00;;;6.93;;
33268;SDS011;19640;50.944;5.260;2023-02-28T02:13:34;7.30;;;6.35;;
33268;SDS011;19640;50.944;5.260;2023-02-28T02:19:02;9.50;;;8.13;;
33268;SDS011;19640;50.944;5.260;2023-02-28T02:22:25;10.88;;;8.52;;
33268;SDS011;19640;50.944;5.260;2023-02-28T02:25:21;16.98;;;11.15;;
33268;SDS011;19640;50.944;5.260;2023-02-28T02:44:19;7.18;;;6.47;;
33268;SDS011;19640;50.944;5.260;2023-02-28T02:46:47;8.77;;;7.15;;
33268;SDS011;19640;50.944;5.260;2023-02-28T02:49:22;15.85;;;7.50;;
33268;SDS011;19640;50.944;5.260;2023-02-28T02:51:52;8.07;;;6.80;;
33268;SDS011;19640;50.944;5.260;2023-02-28T02:54:24;9.45;;;6.90;;
33268;SDS011;19640;50.944;5.260;2023-02-28T02:56:53;10.45;;;7.00;;
33268;SDS011;19640;50.944;5.260;2023-02-28T02:59:22;7.90;;;7.18;;
33268;SDS011;19640;50.944;5.260;2023-02-28T03:01:50;10.38;;;7.97;;
33268;SDS011;19640;50.944;5.260;2023-02-28T03:04:20;10.75;;;8.15;;
33268;SDS011;19640;50.944;5.260;2023-02-28T03:06:47;10.45;;;7.10;;
33268;SDS011;19640;50.944;5.260;2023-02-28T03:09:18;10.50;;;7.70;;
33268;SDS011;19640;50.944;5.260;2023-02-28T03:11:43;13.55;;;7.88;;
33268;SDS011;19640;50.944;5.260;2023-02-28T03:14:22;9.40;;;7.15;;
33268;SDS011;19640;50.944;5.260;2023-02-28T03:33:29;8.70;;;6.22;;
33268;SDS011;19640;50.944;5.260;2023-02-28T03:35:59;17.08;;;6.97;;
33268;SDS011;19640;50.944;5.260;2023-02-28T03:41:14;9.90;;;7.20;;
33268;SDS011;19640;50.944;5.260;2023-02-28T03:43:58;14.05;;;8.25;;
33268;SDS011;19640;50.944;5.260;2023-02-28T03:46:52;9.75;;;7.97;;
33268;SDS011;19640;50.944;5.260;2023-02-28T03:49:25;10.02;;;7.70;;
33268;SDS011;19640;50.944;5.260;2023-02-28T03:51:55;7.90;;;7.10;;
33268;SDS011;19640;50.944;5.260;2023-02-28T03:54:29;10.05;;;6.95;;
33268;SDS011;19640;50.944;5.260;2023-02-28T03:57:03;10.80;;;7.78;;
33268;SDS011;19640;50.944;5.260;2023-02-28T03:59:46;7.68;;;6.80;;
33268;SDS011;19640;50.944;5.260;2023-02-28T04:02:15;7.85;;;6.90;;
33268;SDS011;19640;50.944;5.260;2023-02-28T04:04:41;7.72;;;6.93;;
33268;SDS011;19640;50.944;5.260;2023-02-28T04:07:13;7.32;;;6.53;;
33268;SDS011;19640;50.944;5.260;2023-02-28T04:09:39;8.43;;;6.93;;
33268;SDS011;19640;50.944;5.260;2023-02-28T04:12:04;12.73;;;7.10;;
33268;SDS011;19640;50.944;5.260;2023-02-28T04:14:30;7.95;;;7.15;;
33268;SDS011;19640;50.944;5.260;2023-02-28T04:16:56;7.75;;;6.95;;
33268;SDS011;19640;50.944;5.260;2023-02-28T04:19:22;11.23;;;7.35;;
33268;SDS011;19640;50.944;5.260;2023-02-28T04:21:48;11.27;;;7.20;;
33268;SDS011;19640;50.944;5.260;2023-02-28T04:24:16;11.32;;;7.43;;
33268;SDS011;19640;50.944;5.260;2023-02-28T04:26:45;9.90;;;7.45;;
33268;SDS011;19640;50.944;5.260;2023-02-28T04:29:13;9.18;;;7.47;;
33268;SDS011;19640;50.944;5.260;2023-02-28T04:31:42;11.35;;;7.88;;
33268;SDS011;19640;50.944;5.260;2023-02-28T04:34:08;9.95;;;7.28;;
33268;SDS011;19640;50.944;5.260;2023-02-28T04:36:34;10.93;;;7.30;;
33268;SDS011;19640;50.944;5.260;2023-02-28T04:38:59;8.52;;;7.55;;
33268;SDS011;19640;50.944;5.260;2023-02-28T04:41:25;8.98;;;7.13;;
33268;SDS011;19640;50.944;5.260;2023-02-28T04:43:51;8.68;;;7.72;;
33268;SDS011;19640;50.944;5.260;2023-02-28T04:46:18;12.88;;;7.15;;
33268;SDS011;19640;50.944;5.260;2023-02-28T04:48:44;10.45;;;7.38;;
33268;SDS011;19640;50.944;5.260;2023-02-28T04:51:11;12.27;;;7.85;;
33268;SDS011;19640;50.944;5.260;2023-02-28T04:53:39;8.82;;;7.18;;
33268;SDS011;19640;50.944;5.260;2023-02-28T04:56:06;10.60;;;7.38;;
33268;SDS011;19640;50.944;5.260;2023-02-28T04:58:33;11.70;;;7.95;;
33268;SDS011;19640;50.944;5.260;2023-02-28T05:03:53;13.60;;;7.97;;
33268;SDS011;19640;50.944;5.260;2023-02-28T05:06:21;12.60;;;7.60;;
33268;SDS011;19640;50.944;5.260;2023-02-28T05:08:48;13.07;;;7.50;;
33268;SDS011;19640;50.944;5.260;2023-02-28T05:11:35;11.73;;;8.07;;
33268;SDS011;19640;50.944;5.260;2023-02-28T05:14:04;8.52;;;7.60;;
33268;SDS011;19640;50.944;5.260;2023-02-28T05:18:58;12.13;;;7.28;;
33268;SDS011;19640;50.944;5.260;2023-02-28T05:24:11;12.65;;;8.52;;
33268;SDS011;19640;50.944;5.260;2023-02-28T05:26:41;12.60;;;8.50;;
33268;SDS011;19640;50.944;5.260;2023-02-28T05:29:08;13.60;;;8.73;;
33268;SDS011;19640;50.944;5.260;2023-02-28T05:31:34;13.02;;;8.10;;
33268;SDS011;19640;50.944;5.260;2023-02-28T05:34:01;11.38;;;7.97;;
33268;SDS011;19640;50.944;5.260;2023-02-28T05:36:29;10.45;;;8.35;;
33268;SDS011;19640;50.944;5.260;2023-02-28T05:38:54;9.80;;;8.23;;
33268;SDS011;19640;50.944;5.260;2023-02-28T05:41:20;13.80;;;8.68;;
33268;SDS011;19640;50.944;5.260;2023-02-28T05:43:46;10.27;;;8.68;;
33268;SDS011;19640;50.944;5.260;2023-02-28T05:46:13;10.23;;;8.02;;
33268;SDS011;19640;50.944;5.260;2023-02-28T05:48:39;12.95;;;8.68;;
33268;SDS011;19640;50.944;5.260;2023-02-28T05:51:06;10.38;;;8.93;;
33268;SDS011;19640;50.944;5.260;2023-02-28T05:53:33;10.77;;;8.88;;
33268;SDS011;19640;50.944;5.260;2023-02-28T05:55:59;10.82;;;7.78;;
33268;SDS011;19640;50.944;5.260;2023-02-28T05:58:25;11.30;;;8.85;;
33268;SDS011;19640;50.944;5.260;2023-02-28T06:00:55;11.15;;;8.95;;
33268;SDS011;19640;50.944;5.260;2023-02-28T06:03:22;9.15;;;8.25;;
33268;SDS011;19640;50.944;5.260;2023-02-28T06:05:47;9.35;;;8.25;;
33268;SDS011;19640;50.944;5.260;2023-02-28T06:08:13;10.65;;;8.50;;
33268;SDS011;19640;50.944;5.260;2023-02-28T06:10:38;11.48;;;8.40;;
33268;SDS011;19640;50.944;5.260;2023-02-28T06:13:04;10.80;;;8.05;;
33268;SDS011;19640;50.944;5.260;2023-02-28T06:15:30;10.10;;;8.80;;
33268;SDS011;19640;50.944;5.260;2023-02-28T06:17:56;10.98;;;8.13;;
33268;SDS011;19640;50.944;5.260;2023-02-28T06:20:22;12.70;;;8.77;;
33268;SDS011;19640;50.944;5.260;2023-02-28T06:22:48;9.57;;;8.57;;
33268;SDS011;19640;50.944;5.260;2023-02-28T06:25:15;12.75;;;8.63;;
33268;SDS011;19640;50.944;5.260;2023-02-28T06:27:41;17.05;;;9.32;;
33268;SDS011;19640;50.944;5.260;2023-02-28T06:30:08;12.50;;;8.20;;
33268;SDS011;19640;50.944;5.260;2023-02-28T06:32:35;10.80;;;9.20;;
33268;SDS011;19640;50.944;5.260;2023-02-28T06:35:01;9.95;;;8.55;;
33268;SDS011;19640;50.944;5.260;2023-02-28T06:37:27;10.95;;;9.40;;
33268;SDS011;19640;50.944;5.260;2023-02-28T06:39:53;11.20;;;8.45;;
33268;SDS011;19640;50.944;5.260;2023-02-28T06:42:21;11.00;;;8.55;;
33268;SDS011;19640;50.944;5.260;2023-02-28T06:44:50;9.45;;;7.78;;
33268;SDS011;19640;50.944;5.260;2023-02-28T06:47:16;13.50;;;8.88;;
33268;SDS011;19640;50.944;5.260;2023-02-28T06:49:42;10.05;;;8.02;;
33268;SDS011;19640;50.944;5.260;2023-02-28T06:52:10;11.57;;;8.32;;
33268;SDS011;19640;50.944;5.260;2023-02-28T06:54:36;11.68;;;8.13;;
33268;SDS011;19640;50.944;5.260;2023-02-28T06:57:02;12.00;;;8.70;;
33268;SDS011;19640;50.944;5.260;2023-02-28T06:59:28;9.95;;;8.07;;
33268;SDS011;19640;50.944;5.260;2023-02-28T07:01:53;12.25;;;8.55;;
33268;SDS011;19640;50.944;5.260;2023-02-28T07:04:20;8.32;;;7.53;;
33268;SDS011;19640;50.944;5.260;2023-02-28T07:06:46;11.88;;;7.63;;
33268;SDS011;19640;50.944;5.260;2023-02-28T07:09:11;8.55;;;7.65;;
33268;SDS011;19640;50.944;5.260;2023-02-28T07:11:39;13.57;;;8.20;;
33268;SDS011;19640;50.944;5.260;2023-02-28T07:14:05;14.02;;;8.32;;
33268;SDS011;19640;50.944;5.260;2023-02-28T07:16:32;14.00;;;8.05;;
33268;SDS011;19640;50.944;5.260;2023-02-28T07:18:58;11.60;;;7.90;;
33268;SDS011;19640;50.944;5.260;2023-02-28T07:21:24;13.07;;;7.20;;
33268;SDS011;19640;50.944;5.260;2023-02-28T07:23:50;9.43;;;6.47;;
33268;SDS011;19640;50.944;5.260;2023-02-28T07:26:17;10.48;;;6.85;;
33268;SDS011;19640;50.944;5.260;2023-02-28T07:28:45;9.57;;;6.55;;
33268;SDS011;19640;50.944;5.260;2023-02-28T07:31:12;10.80;;;5.80;;
33268;SDS011;19640;50.944;5.260;2023-02-28T07:33:39;9.57;;;7.18;;
33268;SDS011;19640;50.944;5.260;2023-02-28T07:36:06;7.72;;;6.05;;
33268;SDS011;19640;50.944;5.260;2023-02-28T07:38:34;7.18;;;6.47;;
33268;SDS011;19640;50.944;5.260;2023-02-28T07:41:01;7.32;;;6.22;;
33268;SDS011;19640;50.944;5.260;2023-02-28T07:43:31;7.03;;;6.28;;
33268;SDS011;19640;50.944;5.260;2023-02-28T07:46:04;8.27;;;6.18;;
33268;SDS011;19640;50.944;5.260;2023-02-28T07:48:31;10.02;;;6.60;;
33268;SDS011;19640;50.944;5.260;2023-02-28T07:50:57;7.70;;;6.00;;
33268;SDS011;19640;50.944;5.260;2023-02-28T07:53:24;15.23;;;6.35;;
33268;SDS011;19640;50.944;5.260;2023-02-28T07:55:49;9.20;;;5.78;;
33268;SDS011;19640;50.944;5.260;2023-02-28T07:58:15;10.55;;;5.82;;
33268;SDS011;19640;50.944;5.260;2023-02-28T08:00:40;7.55;;;5.38;;
33268;SDS011;19640;50.944;5.260;2023-02-28T08:03:08;6.85;;;4.50;;
33268;SDS011;19640;50.944;5.260;2023-02-28T08:05:39;5.32;;;4.38;;
33268;SDS011;19640;50.944;5.260;2023-02-28T08:08:06;6.97;;;6.25;;
33268;SDS011;19640;50.944;5.260;2023-02-28T08:10:32;8.20;;;5.38;;
33268;SDS011;19640;50.944;5.260;2023-02-28T08:12:58;8.93;;;4.90;;
33268;SDS011;19640;50.944;5.260;2023-02-28T08:15:23;6.00;;;5.45;;
33268;SDS011;19640;50.944;5.260;2023-02-28T08:17:49;7.40;;;5.40;;
33268;SDS011;19640;50.944;5.260;2023-02-28T08:20:15;7.70;;;5.35;;
33268;SDS011;19640;50.944;5.260;2023-02-28T08:22:40;5.65;;;4.35;;
33268;SDS011;19640;50.944;5.260;2023-02-28T08:25:06;5.25;;;4.68;;
33268;SDS011;19640;50.944;5.260;2023-02-28T08:27:33;6.15;;;4.50;;
33268;SDS011;19640;50.944;5.260;2023-02-28T08:29:59;8.45;;;4.90;;
33268;SDS011;19640;50.944;5.260;2023-02-28T08:32:24;5.32;;;4.60;;
33268;SDS011;19640;50.944;5.260;2023-02-28T08:34:50;5.03;;;4.05;;
33268;SDS011;19640;50.944;5.260;2023-02-28T08:37:16;7.70;;;4.95;;
33268;SDS011;19640;50.944;5.260;2023-02-28T08:39:42;5.63;;;5.05;;
33268;SDS011;19640;50.944;5.260;2023-02-28T08:42:07;9.00;;;4.63;;
33268;SDS011;19640;50.944;5.260;2023-02-28T08:44:33;6.90;;;4.40;;
33268;SDS011;19640;50.944;5.260;2023-02-28T08:46:59;6.25;;;4.63;;
33268;SDS011;19640;50.944;5.260;2023-02-28T08:49:24;5.63;;;4.50;;
33268;SDS011;19640;50.944;5.260;2023-02-28T08:51:50;5.60;;;3.80;;
33268;SDS011;19640;50.944;5.260;2023-02-28T08:54:16;5.82;;;4.13;;
33268;SDS011;19640;50.944;5.260;2023-02-28T08:56:44;5.65;;;3.90;;
33268;SDS011;19640;50.944;5.260;2023-02-28T08:59:12;7.97;;;4.15;;
33268;SDS011;19640;50.944;5.260;2023-02-28T09:01:38;5.03;;;4.53;;
33268;SDS011;19640;50.944;5.260;2023-02-28T09:04:06;5.05;;;3.50;;
33268;SDS011;19640;50.944;5.260;2023-02-28T09:06:33;5.82;;;4.32;;
33268;SDS011;19640;50.944;5.260;2023-02-28T09:09:00;5.10;;;3.88;;
33268;SDS011;19640;50.944;5.260;2023-02-28T09:11:26;4.35;;;3.92;;
33268;SDS011;19640;50.944;5.260;2023-02-28T09:13:53;8.57;;;3.72;;
33268;SDS011;19640;50.944;5.260;2023-02-28T09:16:20;4.05;;;3.13;;
33268;SDS011;19640;50.944;5.260;2023-02-28T09:18:47;5.20;;;3.33;;
33268;SDS011;19640;50.944;5.260;2023-02-28T09:21:16;4.40;;;3.30;;
33268;SDS011;19640;50.944;5.260;2023-02-28T09:23:43;5.10;;;3.10;;
33268;SDS011;19640;50.944;5.260;2023-02-28T09:26:16;4.80;;;2.90;;
33268;SDS011;19640;50.944;5.260;2023-02-28T09:28:44;4.53;;;2.80;;
33268;SDS011;19640;50.944;5.260;2023-02-28T09:31:14;3.72;;;2.45;;
33268;SDS011;19640;50.944;5.260;2023-02-28T09:33:41;4.13;;;2.40;;
33268;SDS011;19640;50.944;5.260;2023-02-28T09:36:07;6.55;;;2.70;;
33268;SDS011;19640;50.944;5.260;2023-02-28T09:38:33;2.47;;;2.10;;
33268;SDS011;19640;50.944;5.260;2023-02-28T09:41:03;3.60;;;2.35;;
33268;SDS011;19640;50.944;5.260;2023-02-28T09:43:35;2.55;;;1.80;;
33268;SDS011;19640;50.944;5.260;2023-02-28T09:48:38;2.80;;;2.10;;
33268;SDS011;19640;50.944;5.260;2023-02-28T09:54:00;3.28;;;2.00;;
33268;SDS011;19640;50.944;5.260;2023-02-28T09:56:32;2.22;;;1.15;;
33268;SDS011;19640;50.944;5.260;2023-02-28T10:02:00;2.90;;;1.73;;
33268;SDS011;19640;50.944;5.260;2023-02-28T10:04:40;3.92;;;1.50;;
33268;SDS011;19640;50.944;5.260;2023-02-28T10:10:32;2.78;;;1.70;;
33268;SDS011;19640;50.944;5.260;2023-02-28T10:12:59;4.22;;;1.50;;
33268;SDS011;19640;50.944;5.260;2023-02-28T10:15:28;1.60;;;1.50;;
33268;SDS011;19640;50.944;5.260;2023-02-28T10:17:57;3.25;;;2.03;;
33268;SDS011;19640;50.944;5.260;2023-02-28T10:20:28;2.55;;;1.70;;
33268;SDS011;19640;50.944;5.260;2023-02-28T10:25:36;8.70;;;1.65;;
33268;SDS011;19640;50.944;5.260;2023-02-28T10:28:12;1.95;;;1.70;;
33268;SDS011;19640;50.944;5.260;2023-02-28T10:30:49;4.40;;;1.70;;
33268;SDS011;19640;50.944;5.260;2023-02-28T10:33:24;2.13;;;1.90;;
33268;SDS011;19640;50.944;5.260;2023-02-28T10:35:53;2.10;;;1.50;;
33268;SDS011;19640;50.944;5.260;2023-02-28T10:38:21;2.22;;;1.70;;
33268;SDS011;19640;50.944;5.260;2023-02-28T10:40:48;2.22;;;1.63;;
33268;SDS011;19640;50.944;5.260;2023-02-28T10:45:40;1.60;;;1.20;;
33268;SDS011;19640;50.944;5.260;2023-02-28T10:55:56;2.55;;;1.73;;
33268;SDS011;19640;50.944;5.260;2023-02-28T10:58:32;2.08;;;1.55;;
33268;SDS011;19640;50.944;5.260;2023-02-28T11:04:02;3.50;;;1.55;;
33268;SDS011;19640;50.944;5.260;2023-02-28T11:06:29;1.45;;;1.35;;
33268;SDS011;19640;50.944;5.260;2023-02-28T11:09:12;1.63;;;1.52;;
33268;SDS011;19640;50.944;5.260;2023-02-28T11:11:49;1.77;;;1.58;;
33268;SDS011;19640;50.944;5.260;2023-02-28T11:14:19;3.78;;;1.42;;
33268;SDS011;19640;50.944;5.260;2023-02-28T11:16:47;1.88;;;1.70;;
33268;SDS011;19640;50.944;5.260;2023-02-28T11:19:22;1.63;;;1.52;;
33268;SDS011;19640;50.944;5.260;2023-02-28T11:22:04;1.70;;;1.42;;
33268;SDS011;19640;50.944;5.260;2023-02-28T11:24:40;1.65;;;1.35;;
33268;SDS011;19640;50.944;5.260;2023-02-28T11:29:56;0.68;;;0.65;;
33268;SDS011;19640;50.944;5.260;2023-02-28T11:32:24;1.85;;;1.40;;
33268;SDS011;19640;50.944;5.260;2023-02-28T11:37:36;1.90;;;1.45;;
33268;SDS011;19640;50.944;5.260;2023-02-28T11:40:08;5.15;;;1.73;;
33268;SDS011;19640;50.944;5.260;2023-02-28T11:43:02;1.80;;;1.70;;
33268;SDS011;19640;50.944;5.260;2023-02-28T12:12:49;3.17;;;1.92;;
33268;SDS011;19640;50.944;5.260;2023-02-28T12:15:38;7.55;;;1.98;;
33268;SDS011;19640;50.944;5.260;2023-02-28T12:21:20;1.85;;;1.38;;
33268;SDS011;19640;50.944;5.260;2023-02-28T12:27:00;2.33;;;1.58;;
33268;SDS011;19640;50.944;5.260;2023-02-28T12:29:32;3.60;;;1.83;;
33268;SDS011;19640;50.944;5.260;2023-02-28T12:32:12;2.17;;;1.40;;
33268;SDS011;19640;50.944;5.260;2023-02-28T12:35:01;2.70;;;1.50;;
33268;SDS011;19640;50.944;5.260;2023-02-28T12:37:37;3.22;;;1.48;;
33268;SDS011;19640;50.944;5.260;2023-02-28T12:42:44;2.10;;;1.90;;
33268;SDS011;19640;50.944;5.260;2023-02-28T12:45:22;2.80;;;2.10;;
33268;SDS011;19640;50.944;5.260;2023-02-28T12:47:55;1.98;;;1.60;;
33268;SDS011;19640;50.944;5.260;2023-02-28T12:50:26;2.20;;;1.88;;
33268;SDS011;19640;50.944;5.260;2023-02-28T12:53:18;1.95;;;1.67;;
33268;SDS011;19640;50.944;5.260;2023-02-28T13:07:00;3.03;;;1.80;;
33268;SDS011;19640;50.944;5.260;2023-02-28T13:09:40;2.05;;;1.60;;
33268;SDS011;19640;50.944;5.260;2023-02-28T13:12:16;1.52;;;1.20;;
33268;SDS011;19640;50.944;5.260;2023-02-28T13:14:41;2.10;;;1.90;;
33268;SDS011;19640;50.944;5.260;2023-02-28T13:19:58;2.33;;;2.13;;
33268;SDS011;19640;50.944;5.260;2023-02-28T13:22:42;1.90;;;1.80;;
33268;SDS011;19640;50.944;5.260;2023-02-28T13:27:48;3.78;;;2.10;;
33268;SDS011;19640;50.944;5.260;2023-02-28T13:35:43;2.15;;;1.95;;
33268;SDS011;19640;50.944;5.260;2023-02-28T13:38:17;1.85;;;1.75;;
33268;SDS011;19640;50.944;5.260;2023-02-28T13:40:48;2.22;;;2.00;;
33268;SDS011;19640;50.944;5.260;2023-02-28T13:43:15;1.20;;;1.10;;
33268;SDS011;19640;50.944;5.260;2023-02-28T13:46:03;2.60;;;2.10;;
33268;SDS011;19640;50.944;5.260;2023-02-28T13:48:33;5.90;;;2.50;;
33268;SDS011;19640;50.944;5.260;2023-02-28T13:50:59;3.78;;;2.42;;
33268;SDS011;19640;50.944;5.260;2023-02-28T13:53:51;1.83;;;1.38;;
33268;SDS011;19640;50.944;5.260;2023-02-28T13:56:30;3.50;;;2.15;;
33268;SDS011;19640;50.944;5.260;2023-02-28T13:59:20;2.70;;;2.00;;
33268;SDS011;19640;50.944;5.260;2023-02-28T14:07:38;3.75;;;2.03;;
33268;SDS011;19640;50.944;5.260;2023-02-28T14:12:52;1.88;;;1.70;;
33268;SDS011;19640;50.944;5.260;2023-02-28T14:18:05;4.70;;;2.25;;
33268;SDS011;19640;50.944;5.260;2023-02-28T14:20:58;2.20;;;2.00;;
33268;SDS011;19640;50.944;5.260;2023-02-28T14:26:13;2.58;;;2.38;;
33268;SDS011;19640;50.944;5.260;2023-02-28T14:29:02;2.72;;;2.28;;
33268;SDS011;19640;50.944;5.260;2023-02-28T14:32:06;2.92;;;2.28;;
33268;SDS011;19640;50.944;5.260;2023-02-28T14:37:39;2.72;;;2.30;;
33268;SDS011;19640;50.944;5.260;2023-02-28T14:40:21;3.83;;;2.63;;
33268;SDS011;19640;50.944;5.260;2023-02-28T14:42:54;2.90;;;2.13;;
33268;SDS011;19640;50.944;5.260;2023-02-28T14:45:29;3.83;;;2.10;;
33268;SDS011;19640;50.944;5.260;2023-02-28T14:47:56;2.90;;;2.10;;
33268;SDS011;19640;50.944;5.260;2023-02-28T14:50:25;2.70;;;1.85;;
33268;SDS011;19640;50.944;5.260;2023-02-28T14:52:55;5.95;;;2.40;;
33268;SDS011;19640;50.944;5.260;2023-02-28T14:55:29;2.45;;;2.05;;
33268;SDS011;19640;50.944;5.260;2023-02-28T14:58:01;3.13;;;2.17;;
33268;SDS011;19640;50.944;5.260;2023-02-28T15:00:32;3.17;;;1.90;;
33268;SDS011;19640;50.944;5.260;2023-02-28T15:03:00;2.67;;;1.83;;
33268;SDS011;19640;50.944;5.260;2023-02-28T15:05:41;3.00;;;2.00;;
33268;SDS011;19640;50.944;5.260;2023-02-28T15:08:15;5.60;;;1.90;;
33268;SDS011;19640;50.944;5.260;2023-02-28T15:10:53;3.00;;;2.50;;
33268;SDS011;19640;50.944;5.260;2023-02-28T15:13:46;3.65;;;1.83;;
33268;SDS011;19640;50.944;5.260;2023-02-28T15:16:18;6.00;;;2.10;;
33268;SDS011;19640;50.944;5.260;2023-02-28T15:18:54;2.60;;;1.90;;
33268;SDS011;19640;50.944;5.260;2023-02-28T15:21:33;2.05;;;1.60;;
33268;SDS011;19640;50.944;5.260;2023-02-28T15:26:38;2.25;;;2.05;;
33268;SDS011;19640;50.944;5.260;2023-02-28T15:29:13;5.57;;;2.20;;
33268;SDS011;19640;50.944;5.260;2023-02-28T15:31:48;1.85;;;1.73;;
33268;SDS011;19640;50.944;5.260;2023-02-28T15:34:20;7.15;;;2.00;;
33268;SDS011;19640;50.944;5.260;2023-02-28T15:36:58;2.33;;;1.80;;
33268;SDS011;19640;50.944;5.260;2023-02-28T15:39:25;3.20;;;1.90;;
33268;SDS011;19640;50.944;5.260;2023-02-28T15:42:09;4.25;;;2.50;;
33268;SDS011;19640;50.944;5.260;2023-02-28T15:44:43;3.00;;;2.15;;
33268;SDS011;19640;50.944;5.260;2023-02-28T15:50:00;2.65;;;2.17;;
33268;SDS011;19640;50.944;5.260;2023-02-28T15:52:39;3.42;;;2.30;;
33268;SDS011;19640;50.944;5.260;2023-02-28T15:55:11;2.20;;;2.00;;
33268;SDS011;19640;50.944;5.260;2023-02-28T15:57:48;4.50;;;1.90;;
33268;SDS011;19640;50.944;5.260;2023-02-28T16:00:22;2.22;;;1.75;;
33268;SDS011;19640;50.944;5.260;2023-02-28T16:05:22;2.58;;;2.00;;
33268;SDS011;19640;50.944;5.260;2023-02-28T16:07:58;3.72;;;2.38;;
33268;SDS011;19640;50.944;5.260;2023-02-28T16:10:38;2.77;;;2.07;;
33268;SDS011;19640;50.944;5.260;2023-02-28T16:13:04;2.70;;;1.73;;
33268;SDS011;19640;50.944;5.260;2023-02-28T16:15:30;8.13;;;2.45;;
33268;SDS011;19640;50.944;5.260;2023-02-28T16:18:07;3.20;;;2.30;;
33268;SDS011;19640;50.944;5.260;2023-02-28T16:20:35;3.15;;;2.40;;
33268;SDS011;19640;50.944;5.260;2023-02-28T16:23:01;10.75;;;2.50;;
33268;SDS011;19640;50.944;5.260;2023-02-28T16:25:34;2.85;;;2.42;;
33268;SDS011;19640;50.944;5.260;2023-02-28T16:28:07;3.25;;;2.50;;
33268;SDS011;19640;50.944;5.260;2023-02-28T16:30:45;2.22;;;2.03;;
33268;SDS011;19640;50.944;5.260;2023-02-28T16:33:10;4.35;;;2.78;;
33268;SDS011;19640;50.944;5.260;2023-02-28T16:35:36;3.45;;;2.30;;
33268;SDS011;19640;50.944;5.260;2023-02-28T16:38:01;2.92;;;2.20;;
33268;SDS011;19640;50.944;5.260;2023-02-28T16:40:27;2.67;;;2.17;;
33268;SDS011;19640;50.944;5.260;2023-02-28T16:42:58;3.63;;;2.20;;
33268;SDS011;19640;50.944;5.260;2023-02-28T16:45:25;2.83;;;2.50;;
33268;SDS011;19640;50.944;5.260;2023-02-28T16:47:53;2.50;;;2.08;;
33268;SDS011;19640;50.944;5.260;2023-02-28T16:52:45;2.55;;;1.95;;
33268;SDS011;19640;50.944;5.260;2023-02-28T16:55:11;4.38;;;2.53;;
33268;SDS011;19640;50.944;5.260;2023-02-28T16:57:37;3.47;;;2.60;;
33268;SDS011;19640;50.944;5.260;2023-02-28T17:00:04;5.00;;;2.70;;
33268;SDS011;19640;50.944;5.260;2023-02-28T17:02:32;8.38;;;2.92;;
33268;SDS011;19640;50.944;5.260;2023-02-28T17:04:58;3.45;;;2.20;;
33268;SDS011;19640;50.944;5.260;2023-02-28T17:07:24;4.25;;;2.30;;
33268;SDS011;19640;50.944;5.260;2023-02-28T17:09:50;2.80;;;2.50;;
33268;SDS011;19640;50.944;5.260;2023-02-28T17:12:15;6.28;;;2.85;;
33268;SDS011;19640;50.944;5.260;2023-02-28T17:14:41;3.15;;;2.50;;
33268;SDS011;19640;50.944;5.260;2023-02-28T17:17:09;4.55;;;2.40;;
33268;SDS011;19640;50.944;5.260;2023-02-28T17:19:46;2.92;;;2.28;;
33268;SDS011;19640;50.944;5.260;2023-02-28T17:22:12;4.30;;;2.28;;
33268;SDS011;19640;50.944;5.260;2023-02-28T17:24:38;4.32;;;3.00;;
33268;SDS011;19640;50.944;5.260;2023-02-28T17:27:04;2.65;;;2.30;;
33268;SDS011;19640;50.944;5.260;2023-02-28T17:29:30;2.97;;;2.35;;
33268;SDS011;19640;50.944;5.260;2023-02-28T17:31:56;2.65;;;2.10;;
33268;SDS011;19640;50.944;5.260;2023-02-28T17:34:22;5.43;;;2.70;;
33268;SDS011;19640;50.944;5.260;2023-02-28T17:36:48;3.47;;;2.60;;
33268;SDS011;19640;50.944;5.260;2023-02-28T17:39:16;4.20;;;2.75;;
33268;SDS011;19640;50.944;5.260;2023-02-28T17:41:49;2.55;;;2.30;;
33268;SDS011;19640;50.944;5.260;2023-02-28T17:44:16;2.60;;;2.40;;
33268;SDS011;19640;50.944;5.260;2023-02-28T17:46:42;3.70;;;2.40;;
33268;SDS011;19640;50.944;5.260;2023-02-28T17:49:08;4.40;;;2.58;;
33268;SDS011;19640;50.944;5.260;2023-02-28T17:51:35;2.42;;;2.22;;